sensor_id;sensor_type;location;lat;lon;timestamp;temperature;humidity
20946;DHT22;10632;51.276;7.116;2023-08-21T00:00:14;19.10;99.90
20946;DHT22;10632;51.276;7.116;2023-08-21T00:02:41;19.10;99.90
20946;DHT22;10632;51.276;7.116;2023-08-21T00:05:11;19.00;99.90
20946;DHT22;10632;51.276;7.116;2023-08-21T00:07:38;19.00;99.90
20946;DHT22;10632;51.276;7.116;2023-08-21T00:10:06;19.00;99.90
20946;DHT22;10632;51.276;7.116;2023-08-21T00:12:34;19.00;99.90
20946;DHT22;10632;51.276;7.116;2023-08-21T00:15:01;19.00;99.90
20946;DHT22;10632;51.276;7.116;2023-08-21T00:17:30;19.00;99.90
20946;DHT22;10632;51.276;7.116;2023-08-21T00:19:58;19.00;99.90
20946;DHT22;10632;51.276;7.116;2023-08-21T00:22:28;19.00;99.90
20946;DHT22;10632;51.276;7.116;2023-08-21T00:24:54;18.90;99.90
20946;DHT22;10632;51.276;7.116;2023-08-21T00:27:21;18.90;99.90
20946;DHT22;10632;51.276;7.116;2023-08-21T00:29:48;19.00;99.90
20946;DHT22;10632;51.276;7.116;2023-08-21T00:32:15;19.00;99.90
20946;DHT22;10632;51.276;7.116;2023-08-21T00:34:43;19.00;99.90
20946;DHT22;10632;51.276;7.116;2023-08-21T00:37:10;19.00;99.90
20946;DHT22;10632;51.276;7.116;2023-08-21T00:39:37;19.00;99.90
20946;DHT22;10632;51.276;7.116;2023-08-21T00:42:04;19.00;99.90
20946;DHT22;10632;51.276;7.116;2023-08-21T00:44:33;19.00;99.90
20946;DHT22;10632;51.276;7.116;2023-08-21T00:47:01;19.00;99.90
20946;DHT22;10632;51.276;7.116;2023-08-21T00:49:30;19.00;99.90
20946;DHT22;10632;51.276;7.116;2023-08-21T00:52:00;19.00;99.90
20946;DHT22;10632;51.276;7.116;2023-08-21T00:54:27;19.00;99.90
20946;DHT22;10632;51.276;7.116;2023-08-21T00:56:55;19.00;99.90
20946;DHT22;10632;51.276;7.116;2023-08-21T00:59:22;18.90;99.90
20946;DHT22;10632;51.276;7.116;2023-08-21T01:01:49;18.90;99.90
20946;DHT22;10632;51.276;7.116;2023-08-21T01:04:16;18.90;99.90
20946;DHT22;10632;51.276;7.116;2023-08-21T01:06:43;18.90;99.90
20946;DHT22;10632;51.276;7.116;2023-08-21T01:09:21;18.90;99.90
20946;DHT22;10632;51.276;7.116;2023-08-21T01:11:54;18.80;99.90
20946;DHT22;10632;51.276;7.116;2023-08-21T01:14:28;18.80;99.90
20946;DHT22;10632;51.276;7.116;2023-08-21T01:16:59;18.80;99.90
20946;DHT22;10632;51.276;7.116;2023-08-21T01:19:31;18.80;99.90
20946;DHT22;10632;51.276;7.116;2023-08-21T01:21:58;18.80;99.90
20946;DHT22;10632;51.276;7.116;2023-08-21T01:24:27;18.70;99.90
20946;DHT22;10632;51.276;7.116;2023-08-21T01:26:53;18.70;99.90
20946;DHT22;10632;51.276;7.116;2023-08-21T01:29:20;18.70;99.90
20946;DHT22;10632;51.276;7.116;2023-08-21T01:31:52;18.70;99.90
20946;DHT22;10632;51.276;7.116;2023-08-21T01:34:21;18.70;99.90
20946;DHT22;10632;51.276;7.116;2023-08-21T01:36:48;18.70;99.90
20946;DHT22;10632;51.276;7.116;2023-08-21T01:39:16;18.70;99.90
20946;DHT22;10632;51.276;7.116;2023-08-21T01:41:44;18.70;99.90
20946;DHT22;10632;51.276;7.116;2023-08-21T01:44:11;18.60;99.90
20946;DHT22;10632;51.276;7.116;2023-08-21T01:46:38;18.60;99.90
20946;DHT22;10632;51.276;7.116;2023-08-21T01:49:05;18.60;99.90
20946;DHT22;10632;51.276;7.116;2023-08-21T01:51:32;18.60;99.90
20946;DHT22;10632;51.276;7.116;2023-08-21T01:53:58;18.60;99.90
20946;DHT22;10632;51.276;7.116;2023-08-21T01:56:25;18.60;99.90
20946;DHT22;10632;51.276;7.116;2023-08-21T01:58:53;18.60;99.90
20946;DHT22;10632;51.276;7.116;2023-08-21T02:01:20;18.50;99.90
20946;DHT22;10632;51.276;7.116;2023-08-21T02:03:48;18.50;99.90
20946;DHT22;10632;51.276;7.116;2023-08-21T02:06:15;18.50;99.90
20946;DHT22;10632;51.276;7.116;2023-08-21T02:08:43;18.50;99.90
20946;DHT22;10632;51.276;7.116;2023-08-21T02:11:10;18.40;99.90
20946;DHT22;10632;51.276;7.116;2023-08-21T02:13:37;18.40;99.90
20946;DHT22;10632;51.276;7.116;2023-08-21T02:16:05;18.40;99.90
20946;DHT22;10632;51.276;7.116;2023-08-21T02:18:32;18.40;99.90
20946;DHT22;10632;51.276;7.116;2023-08-21T02:21:00;18.30;99.90
20946;DHT22;10632;51.276;7.116;2023-08-21T02:23:27;18.30;99.90
20946;DHT22;10632;51.276;7.116;2023-08-21T02:25:54;18.20;99.90
20946;DHT22;10632;51.276;7.116;2023-08-21T02:28:21;18.20;99.90
20946;DHT22;10632;51.276;7.116;2023-08-21T02:30:48;18.10;99.90
20946;DHT22;10632;51.276;7.116;2023-08-21T02:33:16;18.00;99.90
20946;DHT22;10632;51.276;7.116;2023-08-21T02:35:43;18.00;99.90
20946;DHT22;10632;51.276;7.116;2023-08-21T02:38:10;17.90;99.90
20946;DHT22;10632;51.276;7.116;2023-08-21T02:40:37;17.90;99.90
20946;DHT22;10632;51.276;7.116;2023-08-21T02:43:04;17.90;99.90
20946;DHT22;10632;51.276;7.116;2023-08-21T02:45:31;17.90;99.90
20946;DHT22;10632;51.276;7.116;2023-08-21T02:47:58;17.80;99.90
20946;DHT22;10632;51.276;7.116;2023-08-21T02:50:26;17.80;99.90
20946;DHT22;10632;51.276;7.116;2023-08-21T02:52:53;17.70;99.90
20946;DHT22;10632;51.276;7.116;2023-08-21T02:55:20;17.70;99.90
20946;DHT22;10632;51.276;7.116;2023-08-21T02:57:47;17.70;99.90
20946;DHT22;10632;51.276;7.116;2023-08-21T03:00:14;17.70;99.90
20946;DHT22;10632;51.276;7.116;2023-08-21T03:02:42;17.60;99.90
20946;DHT22;10632;51.276;7.116;2023-08-21T03:05:09;17.60;99.90
20946;DHT22;10632;51.276;7.116;2023-08-21T03:07:38;17.60;99.90
20946;DHT22;10632;51.276;7.116;2023-08-21T03:10:06;17.60;99.90
20946;DHT22;10632;51.276;7.116;2023-08-21T03:12:33;17.50;99.90
20946;DHT22;10632;51.276;7.116;2023-08-21T03:15:00;17.50;99.90
20946;DHT22;10632;51.276;7.116;2023-08-21T03:17:27;17.50;99.90
20946;DHT22;10632;51.276;7.116;2023-08-21T03:19:54;17.50;99.90
20946;DHT22;10632;51.276;7.116;2023-08-21T03:22:21;17.50;99.90
20946;DHT22;10632;51.276;7.116;2023-08-21T03:24:49;17.50;99.90
20946;DHT22;10632;51.276;7.116;2023-08-21T03:27:16;17.60;99.90
20946;DHT22;10632;51.276;7.116;2023-08-21T03:29:43;17.60;99.90
20946;DHT22;10632;51.276;7.116;2023-08-21T03:32:14;17.70;99.90
20946;DHT22;10632;51.276;7.116;2023-08-21T03:34:41;17.70;99.90
20946;DHT22;10632;51.276;7.116;2023-08-21T03:37:17;17.70;99.90
20946;DHT22;10632;51.276;7.116;2023-08-21T03:39:53;17.70;99.90
20946;DHT22;10632;51.276;7.116;2023-08-21T03:42:23;17.60;99.90
20946;DHT22;10632;51.276;7.116;2023-08-21T03:44:55;17.60;99.90
20946;DHT22;10632;51.276;7.116;2023-08-21T03:47:26;17.60;99.90
20946;DHT22;10632;51.276;7.116;2023-08-21T03:49:53;17.60;99.90
20946;DHT22;10632;51.276;7.116;2023-08-21T03:52:23;17.60;99.90
20946;DHT22;10632;51.276;7.116;2023-08-21T03:55:05;17.60;99.90
20946;DHT22;10632;51.276;7.116;2023-08-21T03:57:33;17.60;99.90
20946;DHT22;10632;51.276;7.116;2023-08-21T04:00:01;17.70;99.90
20946;DHT22;10632;51.276;7.116;2023-08-21T04:02:36;17.70;99.90
20946;DHT22;10632;51.276;7.116;2023-08-21T04:05:22;17.70;99.90
20946;DHT22;10632;51.276;7.116;2023-08-21T04:08:02;17.70;99.90
20946;DHT22;10632;51.276;7.116;2023-08-21T04:10:39;17.70;99.90
20946;DHT22;10632;51.276;7.116;2023-08-21T04:13:10;17.60;99.90
20946;DHT22;10632;51.276;7.116;2023-08-21T04:15:44;17.60;99.90
20946;DHT22;10632;51.276;7.116;2023-08-21T04:18:18;17.60;99.90
20946;DHT22;10632;51.276;7.116;2023-08-21T04:20:49;17.60;99.90
20946;DHT22;10632;51.276;7.116;2023-08-21T04:23:17;17.60;99.90
20946;DHT22;10632;51.276;7.116;2023-08-21T04:25:53;17.60;99.90
20946;DHT22;10632;51.276;7.116;2023-08-21T04:28:24;17.60;99.90
20946;DHT22;10632;51.276;7.116;2023-08-21T04:31:07;17.60;99.90
20946;DHT22;10632;51.276;7.116;2023-08-21T04:33:35;17.60;99.90
20946;DHT22;10632;51.276;7.116;2023-08-21T04:36:16;17.70;99.90
20946;DHT22;10632;51.276;7.116;2023-08-21T04:38:48;17.70;99.90
20946;DHT22;10632;51.276;7.116;2023-08-21T04:41:34;17.80;99.90
20946;DHT22;10632;51.276;7.116;2023-08-21T04:44:13;17.80;99.90
20946;DHT22;10632;51.276;7.116;2023-08-21T04:46:48;17.80;99.90
20946;DHT22;10632;51.276;7.116;2023-08-21T04:52:03;17.80;99.90
20946;DHT22;10632;51.276;7.116;2023-08-21T04:54:30;17.80;99.90
20946;DHT22;10632;51.276;7.116;2023-08-21T04:56:58;17.80;99.90
20946;DHT22;10632;51.276;7.116;2023-08-21T04:59:25;17.80;99.90
20946;DHT22;10632;51.276;7.116;2023-08-21T05:01:53;17.80;99.90
20946;DHT22;10632;51.276;7.116;2023-08-21T05:04:20;17.80;99.90
20946;DHT22;10632;51.276;7.116;2023-08-21T05:06:47;17.80;99.90
20946;DHT22;10632;51.276;7.116;2023-08-21T05:09:14;17.90;99.90
20946;DHT22;10632;51.276;7.116;2023-08-21T05:11:41;17.80;99.90
20946;DHT22;10632;51.276;7.116;2023-08-21T05:14:09;17.80;99.90
20946;DHT22;10632;51.276;7.116;2023-08-21T05:16:36;17.90;99.90
20946;DHT22;10632;51.276;7.116;2023-08-21T05:19:03;17.90;99.90
20946;DHT22;10632;51.276;7.116;2023-08-21T05:21:30;17.90;99.90
20946;DHT22;10632;51.276;7.116;2023-08-21T05:23:57;18.00;99.90
20946;DHT22;10632;51.276;7.116;2023-08-21T05:26:24;18.00;99.90
20946;DHT22;10632;51.276;7.116;2023-08-21T05:28:51;18.00;99.90
20946;DHT22;10632;51.276;7.116;2023-08-21T05:31:19;18.10;99.90
20946;DHT22;10632;51.276;7.116;2023-08-21T05:33:46;18.20;99.90
20946;DHT22;10632;51.276;7.116;2023-08-21T05:36:13;18.20;99.90
20946;DHT22;10632;51.276;7.116;2023-08-21T05:38:40;18.20;99.90
20946;DHT22;10632;51.276;7.116;2023-08-21T05:41:07;18.30;99.90
20946;DHT22;10632;51.276;7.116;2023-08-21T05:43:34;18.30;99.90
20946;DHT22;10632;51.276;7.116;2023-08-21T05:46:01;18.30;99.90
20946;DHT22;10632;51.276;7.116;2023-08-21T05:48:29;18.30;99.90
20946;DHT22;10632;51.276;7.116;2023-08-21T05:50:56;18.30;99.90
20946;DHT22;10632;51.276;7.116;2023-08-21T05:53:23;18.30;99.90
20946;DHT22;10632;51.276;7.116;2023-08-21T05:55:50;18.30;99.90
20946;DHT22;10632;51.276;7.116;2023-08-21T05:58:17;18.30;99.90
20946;DHT22;10632;51.276;7.116;2023-08-21T06:00:44;18.30;99.90
20946;DHT22;10632;51.276;7.116;2023-08-21T06:03:12;18.40;99.90
20946;DHT22;10632;51.276;7.116;2023-08-21T06:05:41;18.40;99.90
20946;DHT22;10632;51.276;7.116;2023-08-21T06:08:09;18.40;99.90
20946;DHT22;10632;51.276;7.116;2023-08-21T06:10:36;18.40;99.90
20946;DHT22;10632;51.276;7.116;2023-08-21T06:13:03;18.40;99.90
20946;DHT22;10632;51.276;7.116;2023-08-21T06:15:29;18.50;99.90
20946;DHT22;10632;51.276;7.116;2023-08-21T06:17:57;18.50;99.90
20946;DHT22;10632;51.276;7.116;2023-08-21T06:20:24;18.50;99.90
20946;DHT22;10632;51.276;7.116;2023-08-21T06:22:53;18.50;99.90
20946;DHT22;10632;51.276;7.116;2023-08-21T06:25:20;18.50;99.90
20946;DHT22;10632;51.276;7.116;2023-08-21T06:27:46;18.50;99.90
20946;DHT22;10632;51.276;7.116;2023-08-21T06:30:13;18.40;99.90
20946;DHT22;10632;51.276;7.116;2023-08-21T06:32:42;18.50;99.90
20946;DHT22;10632;51.276;7.116;2023-08-21T06:35:09;18.50;99.90
20946;DHT22;10632;51.276;7.116;2023-08-21T06:37:36;18.50;99.90
20946;DHT22;10632;51.276;7.116;2023-08-21T06:40:06;18.50;99.90
20946;DHT22;10632;51.276;7.116;2023-08-21T06:42:33;18.50;99.90
20946;DHT22;10632;51.276;7.116;2023-08-21T06:45:00;18.50;99.90
20946;DHT22;10632;51.276;7.116;2023-08-21T06:47:26;18.60;99.90
20946;DHT22;10632;51.276;7.116;2023-08-21T06:49:54;18.60;99.90
20946;DHT22;10632;51.276;7.116;2023-08-21T06:52:20;18.60;99.90
20946;DHT22;10632;51.276;7.116;2023-08-21T06:54:47;18.60;99.90
20946;DHT22;10632;51.276;7.116;2023-08-21T06:57:18;18.60;99.90
20946;DHT22;10632;51.276;7.116;2023-08-21T06:59:45;18.70;99.90
20946;DHT22;10632;51.276;7.116;2023-08-21T07:02:12;18.80;99.90
20946;DHT22;10632;51.276;7.116;2023-08-21T07:04:39;18.80;99.90
20946;DHT22;10632;51.276;7.116;2023-08-21T07:07:08;18.90;99.90
20946;DHT22;10632;51.276;7.116;2023-08-21T07:09:34;19.00;99.90
20946;DHT22;10632;51.276;7.116;2023-08-21T07:12:01;19.00;99.90
20946;DHT22;10632;51.276;7.116;2023-08-21T07:14:30;19.10;99.90
20946;DHT22;10632;51.276;7.116;2023-08-21T07:16:56;19.10;99.90
20946;DHT22;10632;51.276;7.116;2023-08-21T07:19:23;19.20;99.90
20946;DHT22;10632;51.276;7.116;2023-08-21T07:21:50;19.30;99.90
20946;DHT22;10632;51.276;7.116;2023-08-21T07:24:17;19.40;99.90
20946;DHT22;10632;51.276;7.116;2023-08-21T07:26:44;19.40;99.90
20946;DHT22;10632;51.276;7.116;2023-08-21T07:29:13;19.40;99.90
20946;DHT22;10632;51.276;7.116;2023-08-21T07:31:41;19.50;99.90
20946;DHT22;10632;51.276;7.116;2023-08-21T07:34:08;19.60;99.90
20946;DHT22;10632;51.276;7.116;2023-08-21T07:36:35;19.60;99.90
20946;DHT22;10632;51.276;7.116;2023-08-21T07:39:02;19.70;99.90
20946;DHT22;10632;51.276;7.116;2023-08-21T07:41:29;19.80;99.90
20946;DHT22;10632;51.276;7.116;2023-08-21T07:43:56;19.70;99.90
20946;DHT22;10632;51.276;7.116;2023-08-21T07:46:22;19.80;99.90
20946;DHT22;10632;51.276;7.116;2023-08-21T07:48:52;19.80;99.90
20946;DHT22;10632;51.276;7.116;2023-08-21T07:51:19;19.80;99.90
20946;DHT22;10632;51.276;7.116;2023-08-21T07:53:45;19.80;99.90
20946;DHT22;10632;51.276;7.116;2023-08-21T07:56:13;19.90;99.90
20946;DHT22;10632;51.276;7.116;2023-08-21T07:58:39;19.90;99.90
20946;DHT22;10632;51.276;7.116;2023-08-21T08:01:06;19.90;99.90
20946;DHT22;10632;51.276;7.116;2023-08-21T08:03:34;20.00;99.90
20946;DHT22;10632;51.276;7.116;2023-08-21T08:06:03;20.10;99.90
20946;DHT22;10632;51.276;7.116;2023-08-21T08:08:30;20.20;99.90
20946;DHT22;10632;51.276;7.116;2023-08-21T08:11:02;20.20;99.90
20946;DHT22;10632;51.276;7.116;2023-08-21T08:13:29;20.30;99.90
20946;DHT22;10632;51.276;7.116;2023-08-21T08:15:56;20.40;99.90
20946;DHT22;10632;51.276;7.116;2023-08-21T08:20:51;20.60;99.90
20946;DHT22;10632;51.276;7.116;2023-08-21T08:23:20;20.70;99.90
20946;DHT22;10632;51.276;7.116;2023-08-21T08:25:48;20.70;99.90
20946;DHT22;10632;51.276;7.116;2023-08-21T08:28:15;20.90;99.90
20946;DHT22;10632;51.276;7.116;2023-08-21T08:30:42;20.90;99.90
20946;DHT22;10632;51.276;7.116;2023-08-21T08:33:09;21.00;99.90
20946;DHT22;10632;51.276;7.116;2023-08-21T08:35:36;21.10;99.90
20946;DHT22;10632;51.276;7.116;2023-08-21T08:38:03;21.20;99.90
20946;DHT22;10632;51.276;7.116;2023-08-21T08:40:31;21.20;99.90
20946;DHT22;10632;51.276;7.116;2023-08-21T08:43:00;21.30;99.90
20946;DHT22;10632;51.276;7.116;2023-08-21T08:45:29;21.40;99.90
20946;DHT22;10632;51.276;7.116;2023-08-21T08:47:58;21.50;99.90
20946;DHT22;10632;51.276;7.116;2023-08-21T08:50:28;21.60;99.90
20946;DHT22;10632;51.276;7.116;2023-08-21T08:52:55;21.60;99.90
20946;DHT22;10632;51.276;7.116;2023-08-21T08:55:23;21.70;99.90
20946;DHT22;10632;51.276;7.116;2023-08-21T08:57:52;21.80;99.90
20946;DHT22;10632;51.276;7.116;2023-08-21T09:00:20;21.90;99.90
20946;DHT22;10632;51.276;7.116;2023-08-21T09:02:47;21.90;99.90
20946;DHT22;10632;51.276;7.116;2023-08-21T09:05:14;22.00;99.90
20946;DHT22;10632;51.276;7.116;2023-08-21T09:07:42;22.00;99.90
20946;DHT22;10632;51.276;7.116;2023-08-21T09:10:13;22.10;99.90
20946;DHT22;10632;51.276;7.116;2023-08-21T09:12:40;22.10;99.90
20946;DHT22;10632;51.276;7.116;2023-08-21T09:15:09;22.10;99.90
20946;DHT22;10632;51.276;7.116;2023-08-21T09:17:37;22.10;99.90
20946;DHT22;10632;51.276;7.116;2023-08-21T09:20:04;22.20;99.90
20946;DHT22;10632;51.276;7.116;2023-08-21T09:22:31;22.30;99.90
20946;DHT22;10632;51.276;7.116;2023-08-21T09:25:02;22.30;99.90
20946;DHT22;10632;51.276;7.116;2023-08-21T09:27:32;22.40;99.90
20946;DHT22;10632;51.276;7.116;2023-08-21T09:30:00;22.40;99.90
20946;DHT22;10632;51.276;7.116;2023-08-21T09:32:28;22.50;99.90
20946;DHT22;10632;51.276;7.116;2023-08-21T09:34:56;22.50;99.90
20946;DHT22;10632;51.276;7.116;2023-08-21T09:37:28;22.50;99.90
20946;DHT22;10632;51.276;7.116;2023-08-21T09:40:00;22.60;99.90
20946;DHT22;10632;51.276;7.116;2023-08-21T09:42:30;22.60;99.90
20946;DHT22;10632;51.276;7.116;2023-08-21T09:44:57;22.60;99.90
20946;DHT22;10632;51.276;7.116;2023-08-21T09:47:26;22.60;99.90
20946;DHT22;10632;51.276;7.116;2023-08-21T09:49:54;22.70;99.90
20946;DHT22;10632;51.276;7.116;2023-08-21T09:52:22;22.70;99.90
20946;DHT22;10632;51.276;7.116;2023-08-21T09:54:49;22.80;99.90
20946;DHT22;10632;51.276;7.116;2023-08-21T09:57:18;22.90;99.90
20946;DHT22;10632;51.276;7.116;2023-08-21T09:59:47;22.90;99.90
20946;DHT22;10632;51.276;7.116;2023-08-21T10:02:15;22.90;99.90
20946;DHT22;10632;51.276;7.116;2023-08-21T10:04:44;22.90;99.90
20946;DHT22;10632;51.276;7.116;2023-08-21T10:07:13;23.00;99.90
20946;DHT22;10632;51.276;7.116;2023-08-21T10:09:42;23.00;99.90
20946;DHT22;10632;51.276;7.116;2023-08-21T10:12:09;23.10;99.90
20946;DHT22;10632;51.276;7.116;2023-08-21T10:14:37;23.10;99.90
20946;DHT22;10632;51.276;7.116;2023-08-21T10:17:05;23.30;99.90
20946;DHT22;10632;51.276;7.116;2023-08-21T10:19:34;23.30;99.90
20946;DHT22;10632;51.276;7.116;2023-08-21T10:22:01;23.40;99.90
20946;DHT22;10632;51.276;7.116;2023-08-21T10:24:34;23.40;99.90
20946;DHT22;10632;51.276;7.116;2023-08-21T10:27:02;23.60;99.90
20946;DHT22;10632;51.276;7.116;2023-08-21T10:29:28;23.70;99.90
20946;DHT22;10632;51.276;7.116;2023-08-21T10:32:00;23.80;99.90
20946;DHT22;10632;51.276;7.116;2023-08-21T10:34:32;24.00;99.90
20946;DHT22;10632;51.276;7.116;2023-08-21T10:37:09;24.00;99.90
20946;DHT22;10632;51.276;7.116;2023-08-21T10:39:44;24.20;99.90
20946;DHT22;10632;51.276;7.116;2023-08-21T10:42:19;24.30;99.90
20946;DHT22;10632;51.276;7.116;2023-08-21T10:44:48;24.30;99.90
20946;DHT22;10632;51.276;7.116;2023-08-21T10:47:18;24.40;99.90
20946;DHT22;10632;51.276;7.116;2023-08-21T10:49:47;24.40;99.90
20946;DHT22;10632;51.276;7.116;2023-08-21T10:52:15;24.40;99.90
20946;DHT22;10632;51.276;7.116;2023-08-21T10:54:49;24.40;99.90
20946;DHT22;10632;51.276;7.116;2023-08-21T10:57:17;24.50;99.90
20946;DHT22;10632;51.276;7.116;2023-08-21T10:59:51;24.60;99.90
20946;DHT22;10632;51.276;7.116;2023-08-21T11:02:18;24.70;99.90
20946;DHT22;10632;51.276;7.116;2023-08-21T11:04:45;24.80;99.90
20946;DHT22;10632;51.276;7.116;2023-08-21T11:07:12;24.80;99.90
20946;DHT22;10632;51.276;7.116;2023-08-21T11:09:39;24.80;99.90
20946;DHT22;10632;51.276;7.116;2023-08-21T11:12:10;24.90;99.90
20946;DHT22;10632;51.276;7.116;2023-08-21T11:14:38;25.00;99.90
20946;DHT22;10632;51.276;7.116;2023-08-21T11:17:05;25.10;99.90
20946;DHT22;10632;51.276;7.116;2023-08-21T11:19:32;25.00;99.90
20946;DHT22;10632;51.276;7.116;2023-08-21T11:22:00;25.00;99.90
20946;DHT22;10632;51.276;7.116;2023-08-21T11:24:43;25.10;99.90
20946;DHT22;10632;51.276;7.116;2023-08-21T11:27:14;25.10;99.90
20946;DHT22;10632;51.276;7.116;2023-08-21T11:29:42;25.20;99.90
20946;DHT22;10632;51.276;7.116;2023-08-21T11:32:10;25.20;99.90
20946;DHT22;10632;51.276;7.116;2023-08-21T11:34:38;25.30;99.90
20946;DHT22;10632;51.276;7.116;2023-08-21T11:37:05;25.30;99.90
20946;DHT22;10632;51.276;7.116;2023-08-21T11:39:40;25.40;99.90
20946;DHT22;10632;51.276;7.116;2023-08-21T11:42:10;25.40;99.90
20946;DHT22;10632;51.276;7.116;2023-08-21T11:44:44;25.40;99.90
20946;DHT22;10632;51.276;7.116;2023-08-21T11:47:12;25.50;99.90
20946;DHT22;10632;51.276;7.116;2023-08-21T11:49:40;25.50;99.90
20946;DHT22;10632;51.276;7.116;2023-08-21T11:52:08;25.60;99.90
20946;DHT22;10632;51.276;7.116;2023-08-21T11:54:37;25.60;99.90
20946;DHT22;10632;51.276;7.116;2023-08-21T11:57:06;25.70;99.90
20946;DHT22;10632;51.276;7.116;2023-08-21T11:59:34;25.70;99.90
20946;DHT22;10632;51.276;7.116;2023-08-21T12:02:09;25.70;99.90
20946;DHT22;10632;51.276;7.116;2023-08-21T12:04:36;25.80;99.90
20946;DHT22;10632;51.276;7.116;2023-08-21T12:07:03;25.80;99.90
20946;DHT22;10632;51.276;7.116;2023-08-21T12:09:30;25.90;99.90
20946;DHT22;10632;51.276;7.116;2023-08-21T12:11:57;25.90;99.90
20946;DHT22;10632;51.276;7.116;2023-08-21T12:14:24;25.90;99.90
20946;DHT22;10632;51.276;7.116;2023-08-21T12:16:51;25.90;99.90
20946;DHT22;10632;51.276;7.116;2023-08-21T12:19:20;25.90;99.90
20946;DHT22;10632;51.276;7.116;2023-08-21T12:21:47;25.90;99.90
20946;DHT22;10632;51.276;7.116;2023-08-21T12:24:14;26.00;99.90
20946;DHT22;10632;51.276;7.116;2023-08-21T12:26:41;26.00;99.90
20946;DHT22;10632;51.276;7.116;2023-08-21T12:29:07;26.10;99.90
20946;DHT22;10632;51.276;7.116;2023-08-21T12:31:34;26.10;99.90
20946;DHT22;10632;51.276;7.116;2023-08-21T12:34:02;26.20;99.90
20946;DHT22;10632;51.276;7.116;2023-08-21T12:36:33;26.20;99.90
20946;DHT22;10632;51.276;7.116;2023-08-21T12:39:01;26.30;99.90
20946;DHT22;10632;51.276;7.116;2023-08-21T12:41:28;26.40;99.90
20946;DHT22;10632;51.276;7.116;2023-08-21T12:43:54;26.40;99.90
20946;DHT22;10632;51.276;7.116;2023-08-21T12:46:22;26.40;99.90
20946;DHT22;10632;51.276;7.116;2023-08-21T12:48:48;26.40;99.90
20946;DHT22;10632;51.276;7.116;2023-08-21T12:51:15;26.40;99.90
20946;DHT22;10632;51.276;7.116;2023-08-21T12:53:44;26.40;99.90
20946;DHT22;10632;51.276;7.116;2023-08-21T12:56:11;26.40;99.90
20946;DHT22;10632;51.276;7.116;2023-08-21T12:58:38;26.30;99.90
20946;DHT22;10632;51.276;7.116;2023-08-21T13:01:04;26.40;99.90
20946;DHT22;10632;51.276;7.116;2023-08-21T13:03:33;26.50;99.90
20946;DHT22;10632;51.276;7.116;2023-08-21T13:06:00;26.50;99.90
20946;DHT22;10632;51.276;7.116;2023-08-21T13:08:27;26.50;99.90
20946;DHT22;10632;51.276;7.116;2023-08-21T13:10:56;26.40;99.90
20946;DHT22;10632;51.276;7.116;2023-08-21T13:13:23;26.40;99.90
20946;DHT22;10632;51.276;7.116;2023-08-21T13:15:49;26.40;99.90
20946;DHT22;10632;51.276;7.116;2023-08-21T13:18:16;26.30;99.90
20946;DHT22;10632;51.276;7.116;2023-08-21T13:20:43;26.40;99.90
20946;DHT22;10632;51.276;7.116;2023-08-21T13:23:10;26.50;99.90
20946;DHT22;10632;51.276;7.116;2023-08-21T13:25:37;26.50;99.90
20946;DHT22;10632;51.276;7.116;2023-08-21T13:28:05;26.50;99.90
20946;DHT22;10632;51.276;7.116;2023-08-21T13:30:32;26.50;99.90
20946;DHT22;10632;51.276;7.116;2023-08-21T13:32:59;26.50;99.90
20946;DHT22;10632;51.276;7.116;2023-08-21T13:35:26;26.50;99.90
20946;DHT22;10632;51.276;7.116;2023-08-21T13:37:53;26.50;99.90
20946;DHT22;10632;51.276;7.116;2023-08-21T13:40:19;26.50;99.90
20946;DHT22;10632;51.276;7.116;2023-08-21T13:42:47;26.40;99.90
20946;DHT22;10632;51.276;7.116;2023-08-21T13:45:17;26.40;99.90
20946;DHT22;10632;51.276;7.116;2023-08-21T13:47:45;26.30;99.90
20946;DHT22;10632;51.276;7.116;2023-08-21T13:50:13;26.30;99.90
20946;DHT22;10632;51.276;7.116;2023-08-21T13:52:41;26.30;99.90
20946;DHT22;10632;51.276;7.116;2023-08-21T13:55:09;26.40;99.90
20946;DHT22;10632;51.276;7.116;2023-08-21T13:57:36;26.40;99.90
20946;DHT22;10632;51.276;7.116;2023-08-21T14:00:05;26.40;99.90
20946;DHT22;10632;51.276;7.116;2023-08-21T14:02:34;26.40;99.90
20946;DHT22;10632;51.276;7.116;2023-08-21T14:05:02;26.40;99.90
20946;DHT22;10632;51.276;7.116;2023-08-21T14:07:30;26.30;99.90
20946;DHT22;10632;51.276;7.116;2023-08-21T14:09:57;26.30;99.90
20946;DHT22;10632;51.276;7.116;2023-08-21T14:12:24;26.20;99.90
20946;DHT22;10632;51.276;7.116;2023-08-21T14:14:51;26.10;99.90
20946;DHT22;10632;51.276;7.116;2023-08-21T14:17:17;26.10;99.90
20946;DHT22;10632;51.276;7.116;2023-08-21T14:19:46;26.10;99.90
20946;DHT22;10632;51.276;7.116;2023-08-21T14:22:13;26.00;99.90
20946;DHT22;10632;51.276;7.116;2023-08-21T14:24:39;26.00;99.90
20946;DHT22;10632;51.276;7.116;2023-08-21T14:27:06;26.00;99.90
20946;DHT22;10632;51.276;7.116;2023-08-21T14:29:33;26.00;99.90
20946;DHT22;10632;51.276;7.116;2023-08-21T14:32:00;26.00;99.90
20946;DHT22;10632;51.276;7.116;2023-08-21T14:34:27;26.00;99.90
20946;DHT22;10632;51.276;7.116;2023-08-21T14:36:55;25.90;99.90
20946;DHT22;10632;51.276;7.116;2023-08-21T14:39:24;25.80;99.90
20946;DHT22;10632;51.276;7.116;2023-08-21T14:41:54;25.70;99.90
20946;DHT22;10632;51.276;7.116;2023-08-21T14:44:21;25.60;99.90
20946;DHT22;10632;51.276;7.116;2023-08-21T14:46:48;25.60;99.90
20946;DHT22;10632;51.276;7.116;2023-08-21T14:49:15;25.60;99.90
20946;DHT22;10632;51.276;7.116;2023-08-21T14:51:42;25.60;99.90
20946;DHT22;10632;51.276;7.116;2023-08-21T14:54:11;25.60;99.90
20946;DHT22;10632;51.276;7.116;2023-08-21T14:56:38;25.60;99.90
20946;DHT22;10632;51.276;7.116;2023-08-21T14:59:05;25.60;99.90
20946;DHT22;10632;51.276;7.116;2023-08-21T15:01:36;25.50;99.90
20946;DHT22;10632;51.276;7.116;2023-08-21T15:04:03;25.50;99.90
20946;DHT22;10632;51.276;7.116;2023-08-21T15:06:30;25.40;99.90
20946;DHT22;10632;51.276;7.116;2023-08-21T15:08:57;25.40;99.90
20946;DHT22;10632;51.276;7.116;2023-08-21T15:11:25;25.40;99.90
20946;DHT22;10632;51.276;7.116;2023-08-21T15:13:52;25.50;99.90
20946;DHT22;10632;51.276;7.116;2023-08-21T15:16:19;25.50;99.90
20946;DHT22;10632;51.276;7.116;2023-08-21T15:18:46;25.60;99.90
20946;DHT22;10632;51.276;7.116;2023-08-21T15:21:17;25.70;99.90
20946;DHT22;10632;51.276;7.116;2023-08-21T15:23:43;25.70;99.90
20946;DHT22;10632;51.276;7.116;2023-08-21T15:26:10;25.70;99.90
20946;DHT22;10632;51.276;7.116;2023-08-21T15:28:38;25.70;99.90
20946;DHT22;10632;51.276;7.116;2023-08-21T15:31:08;25.70;99.90
20946;DHT22;10632;51.276;7.116;2023-08-21T15:33:38;25.70;99.90
20946;DHT22;10632;51.276;7.116;2023-08-21T15:36:05;25.70;99.90
20946;DHT22;10632;51.276;7.116;2023-08-21T15:38:32;25.60;99.90
20946;DHT22;10632;51.276;7.116;2023-08-21T15:40:59;25.60;99.90